createdAt,value
2022-11-24T00:01:51.199Z,100396.06
2022-11-24T00:04:18.953Z,100399.53
2022-11-24T00:06:46.772Z,100396.88
2022-11-24T00:09:14.702Z,100386.25
2022-11-24T00:11:42.429Z,100388.84
2022-11-24T00:14:10.644Z,100398.56
2022-11-24T00:16:39.417Z,100418.75
2022-11-24T00:19:09.567Z,100432.81
2022-11-24T00:21:38.630Z,100428.34
2022-11-24T00:24:06.941Z,100426.59
2022-11-24T00:26:39.569Z,100421.22
2022-11-24T00:29:09.372Z,100423.09
2022-11-24T00:31:40.371Z,100420.41
2022-11-24T00:34:13.515Z,100420.44
2022-11-24T00:36:42.544Z,100421.31
2022-11-24T00:39:15.439Z,100426.59
2022-11-24T00:41:44.737Z,100427.59
2022-11-24T00:44:12.415Z,100427.56
2022-11-24T00:46:40.259Z,100417.00
2022-11-24T00:49:08.593Z,100424.06
2022-11-24T00:51:36.419Z,100430.25
2022-11-24T00:54:04.223Z,100436.50
2022-11-24T00:56:32.110Z,100437.41
2022-11-24T00:59:00.063Z,100437.41
2022-11-24T01:01:30.928Z,100443.72
2022-11-24T01:04:03.225Z,100445.53
2022-11-24T01:06:35.645Z,100448.28
2022-11-24T01:09:04.354Z,100456.19
2022-11-24T01:11:54.403Z,100460.69
2022-11-24T01:14:24.522Z,100456.31
2022-11-24T01:16:52.668Z,100449.31
2022-11-24T01:19:20.963Z,100449.28
2022-11-24T01:21:48.909Z,100462.63
2022-11-24T01:24:17.104Z,100471.50
2022-11-24T01:26:45.126Z,100470.59
2022-11-24T01:29:13.299Z,100463.66
2022-11-24T01:31:41.180Z,100469.81
2022-11-24T01:34:08.994Z,100466.28
2022-11-24T01:36:36.919Z,100468.13
2022-11-24T01:39:04.682Z,100473.44
2022-11-24T01:41:34.365Z,100459.44
2022-11-24T01:44:19.402Z,100469.19
2022-11-24T01:46:53.589Z,100466.56
2022-11-24T01:49:54.898Z,100478.84
2022-11-24T01:52:36.982Z,100479.78
2022-11-24T01:55:12.412Z,100479.78
2022-11-24T01:57:52.194Z,100480.66
2022-11-24T02:00:20.149Z,100481.47
2022-11-24T02:02:48.844Z,100489.38
2022-11-24T02:05:27.393Z,100492.81
2022-11-24T02:08:00.761Z,100491.00
2022-11-24T02:10:28.897Z,100482.94
2022-11-24T02:13:00.032Z,100487.34
2022-11-24T02:15:29.032Z,100485.50
2022-11-24T02:17:57.076Z,100490.75
2022-11-24T02:20:25.681Z,100496.69
2022-11-24T02:23:27.930Z,100500.13
2022-11-24T02:26:44.557Z,100499.16
2022-11-24T02:29:14.030Z,100500.81
2022-11-24T02:31:48.698Z,100499.00
2022-11-24T02:34:16.446Z,100502.50
2022-11-24T02:36:44.614Z,100507.75
2022-11-24T02:39:14.792Z,100500.69
2022-11-24T02:41:48.272Z,100513.00
2022-11-24T02:44:19.247Z,100516.44
2022-11-24T02:46:46.969Z,100517.25
2022-11-24T02:49:15.611Z,100512.78
2022-11-24T02:51:43.283Z,100513.69
2022-11-24T02:54:10.995Z,100510.19
2022-11-24T02:56:38.661Z,100514.59
2022-11-24T02:59:06.331Z,100519.88
2022-11-24T03:01:34.040Z,100521.66
2022-11-24T03:04:01.781Z,100511.00
2022-11-24T03:06:29.496Z,100523.34
2022-11-24T03:08:57.296Z,100522.38
2022-11-24T03:11:24.972Z,100512.69
2022-11-24T03:13:52.662Z,100510.94
2022-11-24T03:16:20.448Z,100507.41
2022-11-24T03:18:50.396Z,100517.13
2022-11-24T03:21:18.264Z,100515.28
2022-11-24T03:23:46.088Z,100520.59
2022-11-24T03:26:17.910Z,100523.16
2022-11-24T03:28:46.067Z,100522.41
2022-11-24T03:31:15.071Z,100519.72
2022-11-24T03:33:43.004Z,100523.13
2022-11-24T03:36:10.896Z,100519.66
2022-11-24T03:38:38.603Z,100528.53
2022-11-24T03:41:06.307Z,100528.53
2022-11-24T03:43:36.795Z,100530.31
2022-11-24T03:46:06.885Z,100530.22
2022-11-24T03:48:34.598Z,100528.38
2022-11-24T03:51:05.377Z,100527.50
2022-11-24T03:53:34.559Z,100537.19
2022-11-24T03:56:02.887Z,100540.72
2022-11-24T03:58:30.796Z,100534.59
2022-11-24T04:00:58.770Z,100537.28
2022-11-24T04:03:26.994Z,100547.88
2022-11-24T04:05:54.698Z,100548.69
2022-11-24T04:08:22.419Z,100550.41
2022-11-24T04:10:52.929Z,100552.25
2022-11-24T04:13:24.213Z,100554.59
2022-11-24T04:15:52.114Z,100566.22
2022-11-24T04:18:20.665Z,100560.03
2022-11-24T04:20:52.150Z,100563.63
2022-11-24T04:23:20.092Z,100572.50
2022-11-24T04:25:47.766Z,100572.53
2022-11-24T04:28:15.466Z,100575.16
2022-11-24T04:30:44.837Z,100585.75
2022-11-24T04:33:13.262Z,100583.16
2022-11-24T04:35:41.135Z,100576.09
2022-11-24T04:38:08.884Z,100590.31
2022-11-24T04:40:37.394Z,100592.84
2022-11-24T04:43:05.071Z,100596.50
2022-11-24T04:45:32.720Z,100597.28
2022-11-24T04:48:00.407Z,100607.00
2022-11-24T04:50:28.049Z,100607.00
2022-11-24T04:52:55.757Z,100621.97
2022-11-24T04:55:23.535Z,100621.03
2022-11-24T04:57:51.186Z,100623.63
2022-11-24T05:00:19.472Z,100627.16
2022-11-24T05:02:47.174Z,100632.44
2022-11-24T05:05:14.813Z,100637.75
2022-11-24T05:07:42.491Z,100642.13
2022-11-24T05:10:29.093Z,100646.56
2022-11-24T05:12:59.293Z,100651.84
2022-11-24T05:15:27.340Z,100657.13
2022-11-24T05:17:55.365Z,100663.31
2022-11-24T05:20:23.792Z,100660.63
2022-11-24T05:22:52.025Z,100675.72
2022-11-24T05:25:19.798Z,100671.38
2022-11-24T05:27:47.460Z,100674.94
2022-11-24T05:30:15.273Z,100686.50
2022-11-24T05:32:43.500Z,100693.63
2022-11-24T05:35:11.791Z,100695.38
2022-11-24T05:37:39.524Z,100688.34
2022-11-24T05:40:08.098Z,100701.81
2022-11-24T05:42:46.623Z,100704.50
2022-11-24T05:45:19.291Z,100708.00
2022-11-24T05:47:47.699Z,100705.56
2022-11-24T05:50:18.335Z,100719.66
2022-11-24T05:52:46.420Z,100722.38
2022-11-24T05:55:15.433Z,100725.06
2022-11-24T05:57:43.360Z,100731.25
2022-11-24T06:00:11.843Z,100740.09
2022-11-24T06:02:42.655Z,100743.75
2022-11-24T06:05:10.424Z,100752.53
2022-11-24T06:07:38.111Z,100762.25
2022-11-24T06:10:06.069Z,100762.25
2022-11-24T06:12:33.761Z,100767.53
2022-11-24T06:15:01.513Z,100771.94
2022-11-24T06:17:29.749Z,100777.31
2022-11-24T06:19:57.475Z,100779.94
2022-11-24T06:22:25.139Z,100783.47
2022-11-24T06:24:52.822Z,100792.28
2022-11-24T06:27:20.478Z,100796.69
2022-11-24T06:29:48.479Z,100798.41
2022-11-24T06:32:16.576Z,100801.09
2022-11-24T06:34:44.662Z,100807.25
2022-11-24T06:37:12.302Z,100810.81
2022-11-24T06:39:40.022Z,100823.13
2022-11-24T06:42:07.727Z,100828.44
2022-11-24T06:44:35.634Z,100834.66
2022-11-24T06:47:03.482Z,100831.97
2022-11-24T06:49:31.113Z,100843.41
2022-11-24T06:51:58.802Z,100845.19
2022-11-24T06:54:26.455Z,100843.44
2022-11-24T06:57:00.430Z,100850.53
2022-11-24T06:59:28.259Z,100854.97
2022-11-24T07:01:55.953Z,100859.41
2022-11-24T07:04:23.726Z,100869.13
2022-11-24T07:06:51.411Z,100874.56
2022-11-24T07:09:19.068Z,100872.78
2022-11-24T07:11:46.806Z,100874.59
2022-11-24T07:14:14.574Z,100887.84
2022-11-24T07:16:42.589Z,100885.19
2022-11-24T07:19:10.938Z,100894.00
2022-11-24T07:21:38.646Z,100896.63
2022-11-24T07:24:06.781Z,100903.66
2022-11-24T07:26:37.317Z,100903.69
2022-11-24T07:29:06.085Z,100908.91
2022-11-24T07:31:33.834Z,100902.72
2022-11-24T07:34:01.620Z,100907.09
2022-11-24T07:36:29.393Z,100914.16
2022-11-24T07:38:57.137Z,100915.91
2022-11-24T07:41:24.816Z,100925.53
2022-11-24T07:43:53.044Z,100925.56
2022-11-24T07:46:20.981Z,100936.13
2022-11-24T07:48:48.740Z,100943.19
2022-11-24T07:51:16.666Z,100951.97
2022-11-24T07:53:45.784Z,100951.94
2022-11-24T07:56:13.534Z,100960.72
2022-11-24T07:58:41.234Z,100963.38
2022-11-24T08:01:11.150Z,100973.09
2022-11-24T08:03:39.123Z,100980.06
2022-11-24T08:06:24.044Z,100989.81
2022-11-24T08:08:54.446Z,100988.00
2022-11-24T08:11:22.430Z,100994.09
2022-11-24T08:13:50.317Z,101003.78
2022-11-24T08:16:20.066Z,101004.63
2022-11-24T08:18:54.111Z,100999.28
2022-11-24T08:21:23.329Z,101004.53
2022-11-24T08:23:55.965Z,101004.50
2022-11-24T08:26:25.006Z,100992.09
2022-11-24T08:28:58.753Z,100998.16
2022-11-24T08:31:33.418Z,100999.91
2022-11-24T08:34:03.549Z,101004.28
2022-11-24T08:36:31.937Z,101012.22
2022-11-24T08:39:01.386Z,101021.94
2022-11-24T08:41:30.613Z,101013.97
2022-11-24T08:43:58.404Z,101019.13
2022-11-24T08:46:26.244Z,101020.78
2022-11-24T08:48:55.515Z,101020.69
2022-11-24T08:51:26.428Z,101023.25
2022-11-24T08:54:00.076Z,101028.50
2022-11-24T08:56:31.108Z,101039.97
2022-11-24T08:58:59.336Z,101038.94
2022-11-24T09:01:27.922Z,101039.84
2022-11-24T09:03:56.147Z,101044.25
2022-11-24T09:06:30.770Z,101051.38
2022-11-24T09:08:59.892Z,101050.66
2022-11-24T09:11:28.080Z,101057.69
2022-11-24T09:13:56.138Z,101059.47
2022-11-24T09:16:29.292Z,101059.34
2022-11-24T09:19:03.540Z,101073.53
2022-11-24T09:21:34.221Z,101072.66
2022-11-24T09:24:02.085Z,101070.69
2022-11-24T09:26:33.932Z,101074.75
2022-11-24T09:29:05.574Z,101077.00
2022-11-24T09:31:36.191Z,101081.09
2022-11-24T09:34:15.406Z,101082.50
2022-11-24T09:36:43.892Z,101088.41
2022-11-24T09:39:12.089Z,101093.44
2022-11-24T09:42:28.099Z,101094.81
2022-11-24T09:45:15.271Z,101093.41
2022-11-24T09:47:58.363Z,101099.06
2022-11-24T09:50:34.038Z,101104.00
2022-11-24T09:53:36.157Z,101115.84
2022-11-24T09:56:22.122Z,101112.34
2022-11-24T09:59:07.296Z,101121.56
2022-11-24T10:01:42.362Z,101116.41
2022-11-24T10:04:25.759Z,101118.81
2022-11-24T10:07:30.007Z,101121.97
2022-11-24T10:10:24.280Z,101125.56
2022-11-24T10:13:22.030Z,101125.75
2022-11-24T10:16:23.387Z,101129.38
2022-11-24T10:19:21.858Z,101133.22
2022-11-24T10:22:43.918Z,101136.56
2022-11-24T10:25:30.818Z,101142.53
2022-11-24T10:28:10.683Z,101143.63
2022-11-24T10:30:38.769Z,101150.84
2022-11-24T10:33:24.278Z,101150.97
2022-11-24T10:36:13.308Z,101153.06
2022-11-24T10:39:01.117Z,101162.84
2022-11-24T10:41:51.773Z,101160.41
2022-11-24T10:44:19.505Z,101167.16
2022-11-24T10:46:47.192Z,101159.81
2022-11-24T10:49:24.182Z,101171.19
2022-11-24T10:52:07.042Z,101160.84
2022-11-24T10:54:36.035Z,101171.53
2022-11-24T10:57:03.866Z,101176.56
2022-11-24T10:59:37.570Z,101184.19
2022-11-24T11:02:36.323Z,101177.84
2022-11-24T11:05:43.366Z,101177.94
2022-11-24T11:08:15.295Z,101184.06
2022-11-24T11:10:45.507Z,101189.38
2022-11-24T11:13:30.089Z,101188.31
2022-11-24T11:15:59.104Z,101186.25
2022-11-24T11:18:33.288Z,101192.88
2022-11-24T11:21:02.817Z,101189.06
2022-11-24T11:23:36.546Z,101183.22
2022-11-24T11:26:27.520Z,101187.50
2022-11-24T11:31:15.449Z,101190.97
2022-11-24T11:35:03.493Z,101192.47
2022-11-24T11:37:33.885Z,101192.69
2022-11-24T11:40:02.072Z,101194.53
2022-11-24T11:43:04.603Z,101190.41
2022-11-24T11:45:37.268Z,101191.19
2022-11-24T11:48:10.843Z,101186.56
2022-11-24T11:51:22.756Z,101192.84
2022-11-24T11:54:20.547Z,101186.75
2022-11-24T11:57:15.915Z,101202.88
2022-11-24T11:59:49.055Z,101194.88
2022-11-24T12:02:28.219Z,101185.28
2022-11-24T12:05:49.520Z,101196.97
2022-11-24T12:09:03.200Z,101198.75
2022-11-24T12:11:45.930Z,101200.56
2022-11-24T12:14:26.607Z,101191.69
2022-11-24T12:17:08.946Z,101197.16
2022-11-24T12:20:00.351Z,101188.19
2022-11-24T12:23:01.287Z,101197.09
2022-11-24T12:26:10.984Z,101196.28
2022-11-24T12:29:23.215Z,101199.06
2022-11-24T12:32:05.557Z,101199.06
2022-11-24T12:35:05.902Z,101199.03
2022-11-24T12:38:15.175Z,101193.81
2022-11-24T12:44:17.742Z,101196.56
2022-11-24T12:47:15.748Z,101201.09
2022-11-24T12:50:09.988Z,101214.28
2022-11-24T12:53:22.009Z,101213.56
2022-11-24T12:55:49.971Z,101222.53
2022-11-24T12:58:31.694Z,101226.19
2022-11-24T13:01:42.612Z,101225.28
2022-11-24T13:04:28.562Z,101226.28
2022-11-24T13:07:11.987Z,101223.75
2022-11-24T13:10:54.130Z,101213.91
2022-11-24T13:13:18.069Z,101213.94
2022-11-24T13:16:34.426Z,101214.84
2022-11-24T13:18:53.497Z,101221.28
2022-11-24T13:21:45.292Z,101222.16
2022-11-24T13:24:19.905Z,101223.97
2022-11-24T13:26:52.264Z,101221.31
2022-11-24T13:29:31.791Z,101206.34
2022-11-24T13:32:05.190Z,101216.06
2022-11-24T13:34:49.747Z,101216.03
2022-11-24T13:37:31.575Z,101210.91
2022-11-24T13:40:23.214Z,101214.53
2022-11-24T13:43:02.806Z,101209.16
2022-11-24T13:45:39.543Z,101220.72
2022-11-24T13:48:19.313Z,101216.28
2022-11-24T13:50:49.976Z,101218.13
2022-11-24T13:53:45.166Z,101211.97
2022-11-24T13:56:12.781Z,101219.03
2022-11-24T13:58:50.167Z,101215.56
2022-11-24T14:01:33.329Z,101213.91
2022-11-24T14:04:30.906Z,101210.41
2022-11-24T14:07:08.222Z,101210.41
2022-11-24T14:09:49.616Z,101210.44
2022-11-24T14:12:26.770Z,101214.00
2022-11-24T14:15:26.141Z,101207.78
2022-11-24T14:17:53.863Z,101207.81
2022-11-24T14:20:27.391Z,101206.94
2022-11-24T14:22:55.147Z,101208.81
2022-11-24T14:25:32.487Z,101209.75
2022-11-24T14:28:00.930Z,101208.06
2022-11-24T14:30:28.718Z,101193.94
2022-11-24T14:33:03.664Z,101195.75
2022-11-24T14:35:34.799Z,101201.19
2022-11-24T14:38:05.425Z,101202.16
2022-11-24T14:40:42.962Z,101201.47
2022-11-24T14:43:31.746Z,101207.72
2022-11-24T14:46:09.376Z,101211.41
2022-11-24T14:48:45.193Z,101206.13
2022-11-24T14:51:23.044Z,101213.38
2022-11-24T14:54:13.920Z,101214.44
2022-11-24T14:56:42.098Z,101201.31
2022-11-24T14:59:25.363Z,101207.50
2022-11-24T15:01:53.510Z,101205.84
2022-11-24T15:04:54.249Z,101208.53
2022-11-24T15:07:28.877Z,101207.84
2022-11-24T15:09:59.976Z,101208.78
2022-11-24T15:12:37.885Z,101210.69
2022-11-24T15:15:20.245Z,101219.59
2022-11-24T15:17:54.112Z,101215.28
2022-11-24T15:20:30.247Z,101210.13
2022-11-24T15:23:30.991Z,101213.69
2022-11-24T15:26:18.574Z,101219.97
2022-11-24T15:28:47.254Z,101220.97
2022-11-24T15:31:15.277Z,101224.63
2022-11-24T15:33:43.006Z,101223.88
2022-11-24T15:36:13.862Z,101225.66
2022-11-24T15:38:41.522Z,101229.28
2022-11-24T15:41:32.087Z,101232.09
2022-11-24T15:44:00.122Z,101225.06
2022-11-24T15:46:30.000Z,101224.28
2022-11-24T15:48:57.992Z,101227.97
2022-11-24T15:51:27.271Z,101220.09
2022-11-24T15:54:00.794Z,101216.59
2022-11-24T15:56:33.070Z,101218.44
2022-11-24T15:59:01.601Z,101217.59
2022-11-24T16:01:32.815Z,101224.78
2022-11-24T16:04:03.743Z,101224.81
2022-11-24T16:06:31.573Z,101226.63
2022-11-24T16:09:02.346Z,101228.47
2022-11-24T16:11:30.033Z,101228.50
2022-11-24T16:13:57.698Z,101222.34
2022-11-24T16:16:25.692Z,101223.28
2022-11-24T16:18:53.436Z,101226.91
2022-11-24T16:21:21.211Z,101219.88
2022-11-24T16:23:48.934Z,101221.66
2022-11-24T16:26:16.720Z,101215.53
2022-11-24T16:28:45.604Z,101227.06
2022-11-24T16:31:15.840Z,101226.16
2022-11-24T16:33:46.153Z,101223.56
2022-11-24T16:36:14.761Z,101226.25
2022-11-24T16:38:42.464Z,101230.69
2022-11-24T16:41:10.654Z,101234.25
2022-11-24T16:43:38.879Z,101246.66
2022-11-24T16:46:16.901Z,101237.84
2022-11-24T16:48:46.522Z,101241.44
2022-11-24T16:51:15.774Z,101240.56
2022-11-24T16:53:44.010Z,101236.19
2022-11-24T16:56:12.238Z,101230.88
2022-11-24T16:58:41.650Z,101232.69
2022-11-24T17:01:13.005Z,101229.16
2022-11-24T17:03:41.226Z,101229.25
2022-11-24T17:06:18.541Z,101237.25
2022-11-24T17:08:47.749Z,101231.09
2022-11-24T17:11:20.523Z,101234.66
2022-11-24T17:13:49.213Z,101231.16
2022-11-24T17:16:23.145Z,101227.59
2022-11-24T17:18:51.219Z,101222.31
2022-11-24T17:21:22.071Z,101224.06
2022-11-24T17:23:58.888Z,101228.47
2022-11-24T17:26:27.578Z,101236.44
2022-11-24T17:28:56.170Z,101232.91
2022-11-24T17:31:31.831Z,101224.06
2022-11-24T17:34:01.263Z,101238.22
2022-11-24T17:36:32.012Z,101241.75
2022-11-24T17:39:05.483Z,101236.41
2022-11-24T17:41:33.987Z,101228.44
2022-11-24T17:44:01.729Z,101229.28
2022-11-24T17:46:30.784Z,101233.69
2022-11-24T17:48:58.456Z,101230.19
2022-11-24T17:51:27.252Z,101230.19
2022-11-24T17:53:57.369Z,101230.19
2022-11-24T17:56:27.693Z,101238.16
2022-11-24T17:58:58.468Z,101243.41
2022-11-24T18:01:28.483Z,101228.38
2022-11-24T18:03:56.562Z,101233.59
2022-11-24T18:06:25.373Z,101230.97
2022-11-24T18:08:55.414Z,101229.25
2022-11-24T18:11:31.712Z,101238.97
2022-11-24T18:14:03.438Z,101241.63
2022-11-24T18:16:34.433Z,101245.13
2022-11-24T18:19:08.895Z,101238.00
2022-11-24T18:21:39.977Z,101240.63
2022-11-24T18:24:09.870Z,101249.44
2022-11-24T18:26:39.403Z,101238.00
2022-11-24T18:29:07.814Z,101238.88
2022-11-24T18:31:36.296Z,101231.84
2022-11-24T18:34:06.213Z,101222.19
2022-11-24T18:36:34.772Z,101223.84
2022-11-24T18:39:04.685Z,101224.72
2022-11-24T18:41:32.655Z,101227.50
2022-11-24T18:44:07.633Z,101222.19
2022-11-24T18:46:35.667Z,101222.22
2022-11-24T18:49:03.850Z,101222.97
2022-11-24T18:51:31.582Z,101224.84
2022-11-24T18:53:59.302Z,101216.94
2022-11-24T18:56:27.381Z,101224.91
2022-11-24T18:58:56.979Z,101224.94
2022-11-24T19:01:27.848Z,101220.53
2022-11-24T19:03:58.662Z,101228.50
2022-11-24T19:06:31.996Z,101218.91
2022-11-24T19:09:03.302Z,101212.75
2022-11-24T19:11:36.005Z,101211.91
2022-11-24T19:14:07.818Z,101210.22
2022-11-24T19:16:36.106Z,101211.13
2022-11-24T19:19:05.348Z,101202.31
2022-11-24T19:21:38.340Z,101206.78
2022-11-24T19:24:09.775Z,101211.28
2022-11-24T19:26:38.339Z,101198.06
2022-11-24T19:29:07.576Z,101198.06
2022-11-24T19:31:38.178Z,101199.84
2022-11-24T19:34:07.872Z,101194.59
2022-11-24T19:36:36.088Z,101192.84
2022-11-24T19:39:05.105Z,101199.00
2022-11-24T19:41:34.189Z,101190.22
2022-11-24T19:44:01.849Z,101188.41
2022-11-24T19:46:30.098Z,101191.94
2022-11-24T19:49:00.976Z,101192.94
2022-11-24T19:51:32.518Z,101203.53
2022-11-24T19:54:01.387Z,101194.72
2022-11-24T19:56:32.167Z,101199.09
2022-11-24T19:58:59.879Z,101204.44
2022-11-24T20:01:30.505Z,101210.66
2022-11-24T20:04:17.934Z,101208.03
2022-11-24T20:06:47.533Z,101200.94
2022-11-24T20:09:17.809Z,101206.22
2022-11-24T20:11:45.947Z,101206.31
2022-11-24T20:14:15.234Z,101210.69
2022-11-24T20:16:45.330Z,101199.28
2022-11-24T20:19:15.930Z,101208.03
2022-11-24T20:21:47.697Z,101199.19
2022-11-24T20:24:23.231Z,101205.47
2022-11-24T20:26:58.020Z,101203.69
2022-11-24T20:29:26.110Z,101202.84
2022-11-24T20:31:56.198Z,101198.44
2022-11-24T20:34:24.584Z,101191.38
2022-11-24T20:36:53.034Z,101188.75
2022-11-24T20:39:28.064Z,101191.34
2022-11-24T20:41:56.455Z,101195.78
2022-11-24T20:44:26.536Z,101203.69
2022-11-24T20:46:57.254Z,101201.03
2022-11-24T20:49:26.248Z,101199.19
2022-11-24T20:51:57.252Z,101198.31
2022-11-24T20:54:25.003Z,101190.31
2022-11-24T20:56:52.653Z,101195.63
2022-11-24T20:59:23.371Z,101191.06
2022-11-24T21:01:54.980Z,101195.44
2022-11-24T21:04:26.665Z,101191.91
2022-11-24T21:06:54.709Z,101192.72
2022-11-24T21:09:22.473Z,101191.91
2022-11-24T21:11:50.327Z,101187.50
2022-11-24T21:14:17.970Z,101192.72
2022-11-24T21:16:45.672Z,101196.28
2022-11-24T21:19:18.139Z,101203.25
2022-11-24T21:21:47.452Z,101187.31
2022-11-24T21:24:18.704Z,101190.84
2022-11-24T21:26:47.829Z,101187.25
2022-11-24T21:29:22.526Z,101184.63
2022-11-24T21:31:50.355Z,101183.72
2022-11-24T21:34:19.321Z,101187.16
2022-11-24T21:36:47.323Z,101186.28
2022-11-24T21:39:15.903Z,101180.16
2022-11-24T21:41:43.914Z,101176.59
2022-11-24T21:44:24.402Z,101169.47
2022-11-24T21:46:55.910Z,101174.81
2022-11-24T21:49:23.978Z,101177.47
2022-11-24T21:51:55.467Z,101161.56
2022-11-24T21:54:23.607Z,101172.25
2022-11-24T21:56:51.416Z,101161.63
2022-11-24T21:59:21.806Z,101161.66
2022-11-24T22:01:49.472Z,101160.66
2022-11-24T22:04:17.234Z,101148.31
2022-11-24T22:06:45.054Z,101155.34
2022-11-24T22:09:17.764Z,101152.72
2022-11-24T22:11:49.050Z,101152.69
2022-11-24T22:14:16.808Z,101149.13
2022-11-24T22:16:44.714Z,101144.72
2022-11-24T22:19:12.501Z,101147.31
2022-11-24T22:21:40.215Z,101142.91
2022-11-24T22:24:08.477Z,101139.34
2022-11-24T22:26:36.162Z,101140.25
2022-11-24T22:29:04.043Z,101148.22
2022-11-24T22:31:33.191Z,101150.84
2022-11-24T22:34:02.166Z,101152.59
2022-11-24T22:36:30.954Z,101150.84
2022-11-24T22:39:04.406Z,101152.56
2022-11-24T22:41:34.963Z,101146.41
2022-11-24T22:44:03.309Z,101142.81
2022-11-24T22:46:33.491Z,101151.59
2022-11-24T22:49:02.051Z,101137.50
2022-11-24T22:51:33.605Z,101149.00
2022-11-24T22:54:04.119Z,101143.69
2022-11-24T22:56:33.508Z,101147.22
2022-11-24T22:59:02.089Z,101147.19
2022-11-24T23:01:31.800Z,101156.94
2022-11-24T23:04:00.252Z,101152.50
2022-11-24T23:06:30.919Z,101149.84
2022-11-24T23:09:00.559Z,101150.75
2022-11-24T23:11:37.811Z,101155.16
2022-11-24T23:14:15.247Z,101156.94
2022-11-24T23:16:43.571Z,101153.44
2022-11-24T23:19:11.375Z,101149.00
2022-11-24T23:21:39.327Z,101147.22
2022-11-24T23:24:09.825Z,101133.97
2022-11-24T23:26:40.510Z,101149.88
2022-11-24T23:29:09.558Z,101141.94
2022-11-24T23:31:39.967Z,101143.75
2022-11-24T23:34:07.991Z,101129.56
2022-11-24T23:36:35.654Z,101137.53
2022-11-24T23:39:06.399Z,101125.22
2022-11-24T23:41:34.215Z,101131.34
2022-11-24T23:44:01.935Z,101127.88
2022-11-24T23:46:30.893Z,101128.78
2022-11-24T23:48:58.631Z,101130.53
2022-11-24T23:51:32.746Z,101129.66
2022-11-24T23:54:01.020Z,101134.09
2022-11-24T23:56:32.541Z,101133.22
2022-11-24T23:59:03.039Z,101133.22
